Time;durP1;ratioP1;P1;durP2;ratioP2;P2;SDS_P1;SDS_P2;PMS_P1;PMS_P2;Temp;Humidity;BMP_temperature;BMP_pressure;BME280_temperature;BME280_humidity;BME280_pressure;Samples;Min_cycle;Max_cycle;Signal;HPM_P1;HPM_P2
2021/03/01 00:01:06;;;;;;;53.87;24.43;;;;;;;;;;4378198;32;20208;-79
2021/03/01 00:03:32;;;;;;;48.77;23.93;;;;;;;;;;4378748;32;20173;-79
2021/03/01 00:05:57;;;;;;;54.20;26.27;;;;;;;;;;4378653;32;20166;-79
2021/03/01 00:08:23;;;;;;;57.30;26.53;;;;;;;;;;4378705;32;20542;-79
2021/03/01 00:10:48;;;;;;;67.90;28.07;;;;;;;;;;4378904;32;20189;-79
2021/03/01 00:13:14;;;;;;;53.80;25.40;;;;;;;;;;4403736;32;20190;-79
2021/03/01 00:15:39;;;;;;;71.87;29.20;;;;;;;;;;4378542;32;20196;-78
2021/03/01 00:18:05;;;;;;;65.60;26.90;;;;;;;;;;4378980;32;20150;-79
2021/03/01 00:20:33;;;;;;;78.17;30.43;;;;;;;;;;4403537;32;20205;-79
2021/03/01 00:22:58;;;;;;;54.20;26.00;;;;;;;;;;4378407;32;20154;-79
2021/03/01 00:25:24;;;;;;;60.27;28.70;;;;;;;;;;4378593;32;20159;-79
2021/03/01 00:27:49;;;;;;;54.60;25.60;;;;;;;;;;4378399;32;20241;-79
2021/03/01 00:30:15;;;;;;;58.27;27.43;;;;;;;;;;4403313;32;20595;-79
2021/03/01 00:32:40;;;;;;;62.00;28.97;;;;;;;;;;4378494;32;20204;-79
2021/03/01 00:35:06;;;;;;;61.50;28.63;;;;;;;;;;4378695;32;20249;-79
2021/03/01 00:37:31;;;;;;;75.57;30.87;;;;;;;;;;4392466;32;20164;-79
2021/03/01 00:39:57;;;;;;;62.27;28.23;;;;;;;;;;4392438;32;20131;-80
2021/03/01 00:42:22;;;;;;;64.50;28.60;;;;;;;;;;4378244;32;20605;-79
2021/03/01 00:44:50;;;;;;;63.53;28.40;;;;;;;;;;4378079;32;20246;-79
2021/03/01 00:47:18;;;;;;;58.10;27.70;;;;;;;;;;4378071;32;20484;-79
2021/03/01 00:49:43;;;;;;;85.80;31.93;;;;;;;;;;4392207;32;20208;-79
2021/03/01 00:52:09;;;;;;;73.20;28.60;;;;;;;;;;4392294;32;20520;-79
2021/03/01 00:54:37;;;;;;;81.00;30.47;;;;;;;;;;4378398;32;20185;-79
2021/03/01 00:57:03;;;;;;;60.07;28.07;;;;;;;;;;4377868;32;20259;-79
2021/03/01 00:59:29;;;;;;;75.70;30.63;;;;;;;;;;4378235;32;20158;-79
2021/03/01 01:02:01;;;;;;;59.70;26.60;;;;;;;;;;4378265;32;20173;-79
2021/03/01 01:04:26;;;;;;;60.60;27.33;;;;;;;;;;4378034;32;20288;-79
2021/03/01 01:06:51;;;;;;;64.87;26.43;;;;;;;;;;4377806;32;20154;-79
2021/03/01 01:09:17;;;;;;;49.53;23.93;;;;;;;;;;4378591;32;20178;-79
2021/03/01 01:11:43;;;;;;;60.40;25.37;;;;;;;;;;4390968;32;20621;-79
2021/03/01 01:14:11;;;;;;;76.33;26.20;;;;;;;;;;4402732;32;20591;-79
2021/03/01 01:16:37;;;;;;;101.20;29.37;;;;;;;;;;4402783;32;20150;-79
2021/03/01 01:19:04;;;;;;;64.13;24.60;;;;;;;;;;4378154;32;20209;-79
2021/03/01 01:21:29;;;;;;;58.43;25.97;;;;;;;;;;4378071;32;20167;-79
2021/03/01 01:23:55;;;;;;;71.20;28.53;;;;;;;;;;4377589;32;20579;-79
2021/03/01 01:26:20;;;;;;;66.00;27.53;;;;;;;;;;4377762;32;20216;-79
2021/03/01 01:28:45;;;;;;;59.50;25.77;;;;;;;;;;4377596;32;20163;-79
2021/03/01 01:31:10;;;;;;;67.40;26.40;;;;;;;;;;4377387;32;20625;-78
2021/03/01 01:33:35;;;;;;;94.57;31.50;;;;;;;;;;4377968;32;20158;-78
2021/03/01 01:36:06;;;;;;;85.13;31.20;;;;;;;;;;4377443;32;20158;-79
2021/03/01 01:38:34;;;;;;;62.93;25.93;;;;;;;;;;4402523;32;20567;-79
2021/03/01 01:40:59;;;;;;;64.83;26.43;;;;;;;;;;4377323;32;20495;-78
2021/03/01 01:43:28;;;;;;;64.97;25.80;;;;;;;;;;4393240;32;20252;-79
2021/03/01 01:45:57;;;;;;;52.87;24.40;;;;;;;;;;4377405;32;20150;-78
2021/03/01 01:48:22;;;;;;;53.17;25.03;;;;;;;;;;4390903;32;20489;-78
2021/03/01 01:50:48;;;;;;;66.03;25.30;;;;;;;;;;4377216;32;20208;-78
2021/03/01 01:53:13;;;;;;;61.07;24.93;;;;;;;;;;4377316;32;20582;-79
2021/03/01 01:55:38;;;;;;;70.47;28.60;;;;;;;;;;4377044;32;20177;-78
2021/03/01 01:58:05;;;;;;;92.00;30.03;;;;;;;;;;4391042;32;20150;-78
2021/03/01 02:00:44;;;;;;;78.83;29.07;;;;;;;;;;4377529;32;20158;-78
2021/03/01 02:03:28;;;;;;;66.13;26.40;;;;;;;;;;4377726;32;20209;-78
2021/03/01 02:05:58;;;;;;;63.20;25.63;;;;;;;;;;4376928;32;20223;-79
2021/03/01 02:08:37;;;;;;;67.13;27.33;;;;;;;;;;4377159;32;20216;-79
2021/03/01 02:11:10;;;;;;;59.70;26.30;;;;;;;;;;4377368;32;20559;-79
2021/03/01 02:13:54;;;;;;;60.30;24.60;;;;;;;;;;4376728;32;20161;-79
2021/03/01 02:16:25;;;;;;;55.33;26.13;;;;;;;;;;4376813;32;20248;-79
2021/03/01 02:18:51;;;;;;;70.03;27.23;;;;;;;;;;4377176;32;20155;-79
2021/03/01 02:21:16;;;;;;;69.43;26.93;;;;;;;;;;4390672;32;20127;-79
2021/03/01 02:23:42;;;;;;;67.30;26.27;;;;;;;;;;4376509;32;20158;-79
2021/03/01 02:26:10;;;;;;;69.03;26.70;;;;;;;;;;4376633;32;20158;-79
2021/03/01 02:28:39;;;;;;;66.30;25.07;;;;;;;;;;4390379;32;20162;-79
2021/03/01 02:31:09;;;;;;;66.97;26.07;;;;;;;;;;4376385;32;20166;-79
2021/03/01 02:33:43;;;;;;;57.20;24.27;;;;;;;;;;4376777;32;20228;-79
2021/03/01 02:36:12;;;;;;;58.33;24.87;;;;;;;;;;4377086;32;20203;-79
2021/03/01 02:38:41;;;;;;;60.73;25.53;;;;;;;;;;4376604;32;20159;-79
2021/03/01 02:41:09;;;;;;;66.00;26.30;;;;;;;;;;4391133;32;20131;-79
2021/03/01 02:43:40;;;;;;;61.07;23.57;;;;;;;;;;4376495;32;20245;-79
2021/03/01 02:46:07;;;;;;;66.33;25.27;;;;;;;;;;4377774;32;20139;-80
2021/03/01 02:48:34;;;;;;;64.33;25.40;;;;;;;;;;4376463;32;20233;-79
2021/03/01 02:50:59;;;;;;;59.37;23.47;;;;;;;;;;4376397;32;20159;-79
2021/03/01 02:53:26;;;;;;;70.37;25.40;;;;;;;;;;4376355;32;20268;-79
2021/03/01 02:55:52;;;;;;;59.30;24.97;;;;;;;;;;4376319;32;20174;-79
2021/03/01 02:58:18;;;;;;;62.30;25.70;;;;;;;;;;4376245;32;20155;-80
2021/03/01 03:00:44;;;;;;;68.70;26.10;;;;;;;;;;4376206;32;20224;-79
2021/03/01 03:03:11;;;;;;;65.77;26.10;;;;;;;;;;4376285;32;20166;-79
2021/03/01 03:05:37;;;;;;;58.73;24.63;;;;;;;;;;4390266;32;20161;-80
2021/03/01 03:08:03;;;;;;;74.50;27.43;;;;;;;;;;4376220;32;20258;-79
2021/03/01 03:10:29;;;;;;;52.73;23.97;;;;;;;;;;4376136;32;20465;-79
2021/03/01 03:12:55;;;;;;;55.07;23.80;;;;;;;;;;4384504;32;20205;-79
2021/03/01 03:15:20;;;;;;;57.53;24.03;;;;;;;;;;4403800;32;20161;-79
2021/03/01 03:17:46;;;;;;;64.70;24.97;;;;;;;;;;4403969;32;20468;-79
2021/03/01 03:20:12;;;;;;;48.17;22.33;;;;;;;;;;4403805;32;20494;-79
2021/03/01 03:22:37;;;;;;;52.83;22.83;;;;;;;;;;4404397;32;20199;-79
2021/03/01 03:25:06;;;;;;;61.70;22.70;;;;;;;;;;4403896;32;20215;-79
2021/03/01 03:27:32;;;;;;;57.83;23.53;;;;;;;;;;4404829;32;20162;-79
2021/03/01 03:29:57;;;;;;;52.77;22.37;;;;;;;;;;4403557;32;20621;-79
2021/03/01 03:32:22;;;;;;;50.97;21.50;;;;;;;;;;4404294;32;20234;-79
2021/03/01 03:34:48;;;;;;;53.03;21.20;;;;;;;;;;4404513;32;20172;-79
2021/03/01 03:37:17;;;;;;;49.43;20.93;;;;;;;;;;4406782;32;20151;-79
2021/03/01 03:39:45;;;;;;;45.67;18.93;;;;;;;;;;4406684;32;20155;-79
2021/03/01 03:42:22;;;;;;;49.80;20.30;;;;;;;;;;4407037;32;20575;-79
2021/03/01 03:44:50;;;;;;;51.97;20.47;;;;;;;;;;4406747;32;20157;-79
2021/03/01 03:47:25;;;;;;;45.23;19.93;;;;;;;;;;4406733;32;20146;-79
2021/03/01 03:49:53;;;;;;;45.57;19.57;;;;;;;;;;4406546;32;20149;-80
2021/03/01 03:52:27;;;;;;;48.03;19.70;;;;;;;;;;4406760;32;20248;-79
2021/03/01 03:54:56;;;;;;;48.67;20.20;;;;;;;;;;4407253;32;20245;-79
2021/03/01 03:57:41;;;;;;;45.80;19.50;;;;;;;;;;4406926;32;20155;-79
2021/03/01 04:00:09;;;;;;;42.87;19.60;;;;;;;;;;4407148;32;20157;-79
2021/03/01 04:02:36;;;;;;;41.93;19.00;;;;;;;;;;4407859;32;20547;-79
2021/03/01 04:05:03;;;;;;;40.67;19.00;;;;;;;;;;4406977;32;20199;-80
2021/03/01 04:07:34;;;;;;;48.30;20.63;;;;;;;;;;4406225;32;20233;-79
2021/03/01 04:10:00;;;;;;;45.80;19.57;;;;;;;;;;4403923;32;20146;-79
2021/03/01 04:12:27;;;;;;;36.63;17.70;;;;;;;;;;4396145;32;20166;-80
2021/03/01 04:15:20;;;;;;;43.57;18.73;;;;;;;;;;4408835;32;20578;-80
2021/03/01 04:17:48;;;;;;;41.87;17.87;;;;;;;;;;4409169;32;20575;-79
2021/03/01 04:20:15;;;;;;;39.57;18.40;;;;;;;;;;4404190;32;20150;-78
2021/03/01 04:22:41;;;;;;;40.97;18.23;;;;;;;;;;4383277;32;20157;-77
2021/03/01 04:25:07;;;;;;;36.73;17.63;;;;;;;;;;4393477;32;20177;-78
2021/03/01 04:27:33;;;;;;;40.83;18.70;;;;;;;;;;4393452;32;20910;-79
2021/03/01 04:30:00;;;;;;;34.40;17.10;;;;;;;;;;4393285;32;20162;-79
2021/03/01 04:32:26;;;;;;;34.77;16.53;;;;;;;;;;4393923;32;20150;-79
2021/03/01 04:34:52;;;;;;;34.13;17.00;;;;;;;;;;4393360;32;20153;-79
2021/03/01 04:37:20;;;;;;;36.43;16.37;;;;;;;;;;4393506;32;20576;-78
2021/03/01 04:39:50;;;;;;;35.00;17.03;;;;;;;;;;4393626;32;20197;-78
2021/03/01 04:42:29;;;;;;;35.97;17.73;;;;;;;;;;4393520;32;20165;-79
2021/03/01 04:44:57;;;;;;;35.10;16.70;;;;;;;;;;4406923;32;20185;-79
2021/03/01 04:47:27;;;;;;;37.37;16.80;;;;;;;;;;4407201;32;20204;-79
2021/03/01 04:49:55;;;;;;;38.57;17.07;;;;;;;;;;4393455;32;20621;-79
2021/03/01 04:52:20;;;;;;;35.23;17.07;;;;;;;;;;4392880;32;20621;-78
2021/03/01 04:54:46;;;;;;;43.87;19.00;;;;;;;;;;4393526;32;20147;-78
2021/03/01 04:57:12;;;;;;;38.47;16.90;;;;;;;;;;4393232;32;20691;-79
2021/03/01 04:59:37;;;;;;;35.53;16.47;;;;;;;;;;4392965;32;20162;-80
2021/03/01 05:02:04;;;;;;;34.63;16.67;;;;;;;;;;4392880;32;20305;-79
2021/03/01 05:04:31;;;;;;;33.93;16.37;;;;;;;;;;4407169;32;20433;-80
2021/03/01 05:06:57;;;;;;;34.57;15.93;;;;;;;;;;4392901;32;20181;-79
2021/03/01 05:09:25;;;;;;;38.47;17.30;;;;;;;;;;4393418;32;20158;-80
2021/03/01 05:11:52;;;;;;;37.57;16.63;;;;;;;;;;4392736;32;20158;-79
2021/03/01 05:14:21;;;;;;;34.57;16.27;;;;;;;;;;4379011;32;20154;-79
2021/03/01 05:16:55;;;;;;;38.43;17.47;;;;;;;;;;4377652;32;20567;-78
2021/03/01 05:19:20;;;;;;;40.97;17.07;;;;;;;;;;4378047;32;20170;-78
2021/03/01 05:21:45;;;;;;;33.93;15.90;;;;;;;;;;4377643;32;20154;-81
2021/03/01 05:24:10;;;;;;;37.00;16.33;;;;;;;;;;4378284;32;20181;-79
2021/03/01 05:26:36;;;;;;;34.80;16.60;;;;;;;;;;4377647;32;20159;-79
2021/03/01 05:29:02;;;;;;;38.73;16.77;;;;;;;;;;4377640;32;20612;-78
2021/03/01 05:31:27;;;;;;;36.77;16.70;;;;;;;;;;4391530;32;20134;-77
2021/03/01 05:33:52;;;;;;;32.57;16.37;;;;;;;;;;4377415;32;20611;-79
2021/03/01 05:36:21;;;;;;;36.00;16.27;;;;;;;;;;4377093;32;20493;-79
2021/03/01 05:38:46;;;;;;;34.60;16.50;;;;;;;;;;4391698;32;20158;-78
2021/03/01 05:41:12;;;;;;;31.93;16.33;;;;;;;;;;4391073;32;20131;-78
2021/03/01 05:43:38;;;;;;;38.90;16.90;;;;;;;;;;4391257;32;20160;-76
2021/03/01 05:46:03;;;;;;;37.50;17.03;;;;;;;;;;4377369;32;20187;-77
2021/03/01 05:48:29;;;;;;;39.13;16.63;;;;;;;;;;4391257;32;20167;-78
2021/03/01 05:50:55;;;;;;;37.23;16.60;;;;;;;;;;4377055;32;20208;-78
2021/03/01 05:53:22;;;;;;;36.00;17.10;;;;;;;;;;4377597;32;20203;-78
2021/03/01 05:55:48;;;;;;;37.67;17.53;;;;;;;;;;4377489;32;20151;-80
2021/03/01 05:58:14;;;;;;;36.67;16.50;;;;;;;;;;4377012;32;20194;-79
2021/03/01 06:00:39;;;;;;;38.83;17.50;;;;;;;;;;4377385;32;20241;-79
2021/03/01 06:03:05;;;;;;;38.53;18.10;;;;;;;;;;4390725;32;20123;-76
2021/03/01 06:05:33;;;;;;;37.63;17.97;;;;;;;;;;4390777;32;20128;-77
2021/03/01 06:08:02;;;;;;;39.67;17.87;;;;;;;;;;4390688;32;20217;-78
2021/03/01 06:10:27;;;;;;;37.03;17.23;;;;;;;;;;4376779;32;20200;-78
2021/03/01 06:12:55;;;;;;;33.63;15.87;;;;;;;;;;4379310;32;20216;-79
2021/03/01 06:15:21;;;;;;;37.37;17.63;;;;;;;;;;4389305;32;20146;-78
2021/03/01 06:18:06;;;;;;;38.70;17.17;;;;;;;;;;4389787;32;20480;-78
2021/03/01 06:20:31;;;;;;;35.03;17.53;;;;;;;;;;4389668;32;20158;-76
2021/03/01 06:22:56;;;;;;;37.93;16.73;;;;;;;;;;4389266;32;20180;-78
2021/03/01 06:25:22;;;;;;;36.13;17.07;;;;;;;;;;4388957;32;20155;-78
2021/03/01 06:27:47;;;;;;;37.70;17.47;;;;;;;;;;4389175;32;20193;-78
2021/03/01 06:30:13;;;;;;;39.57;18.40;;;;;;;;;;4390954;32;20189;-77
2021/03/01 06:32:38;;;;;;;45.57;18.27;;;;;;;;;;4390255;32;20123;-78
2021/03/01 06:35:24;;;;;;;41.53;18.63;;;;;;;;;;4389624;32;20208;-79
2021/03/01 06:38:09;;;;;;;37.60;17.73;;;;;;;;;;4389953;32;20178;-78
2021/03/01 06:40:34;;;;;;;39.87;17.60;;;;;;;;;;4389434;32;20212;-79
2021/03/01 06:43:08;;;;;;;43.77;18.10;;;;;;;;;;4388745;32;20154;-78
2021/03/01 06:45:33;;;;;;;46.23;18.30;;;;;;;;;;4400787;32;20647;-79
2021/03/01 06:47:59;;;;;;;38.83;18.67;;;;;;;;;;4404198;32;20169;-79
2021/03/01 06:50:32;;;;;;;43.13;18.60;;;;;;;;;;4398103;32;20166;-76
2021/03/01 06:53:32;;;;;;;37.97;17.47;;;;;;;;;;4376313;32;20154;-79
2021/03/01 06:56:05;;;;;;;41.77;17.53;;;;;;;;;;4401848;32;20228;-77
2021/03/01 06:58:43;;;;;;;43.30;18.90;;;;;;;;;;4400759;32;20181;-76
2021/03/01 07:01:08;;;;;;;46.07;19.47;;;;;;;;;;4388852;32;20154;-78
2021/03/01 07:03:47;;;;;;;38.63;17.67;;;;;;;;;;4388476;32;20161;-79
2021/03/01 07:06:15;;;;;;;46.50;18.07;;;;;;;;;;4390440;32;20158;-79
2021/03/01 07:08:40;;;;;;;49.33;20.03;;;;;;;;;;4388347;32;20150;-80
2021/03/01 07:11:27;;;;;;;40.43;17.43;;;;;;;;;;4388857;32;20513;-79
2021/03/01 07:14:05;;;;;;;41.83;17.83;;;;;;;;;;4377239;32;20681;-78
2021/03/01 07:16:40;;;;;;;43.60;17.23;;;;;;;;;;4389348;32;20139;-78
2021/03/01 07:19:07;;;;;;;43.07;17.90;;;;;;;;;;4376023;32;20177;-78
2021/03/01 07:21:36;;;;;;;46.97;19.23;;;;;;;;;;4389578;32;20138;-78
2021/03/01 07:24:02;;;;;;;46.47;19.03;;;;;;;;;;4380067;32;20611;-78
2021/03/01 07:26:27;;;;;;;47.53;18.57;;;;;;;;;;4389670;32;20153;-77
2021/03/01 07:28:54;;;;;;;43.93;19.10;;;;;;;;;;4389446;32;20170;-76
2021/03/01 07:31:20;;;;;;;43.47;18.33;;;;;;;;;;4389468;32;20157;-75
2021/03/01 07:33:46;;;;;;;45.63;19.43;;;;;;;;;;4375012;32;20223;-77
2021/03/01 07:36:24;;;;;;;44.97;18.00;;;;;;;;;;4375035;32;20663;-78
2021/03/01 07:38:50;;;;;;;45.07;19.03;;;;;;;;;;4375837;32;20210;-77
2021/03/01 07:41:23;;;;;;;41.47;18.13;;;;;;;;;;4376103;32;20158;-77
2021/03/01 07:43:48;;;;;;;38.97;18.07;;;;;;;;;;4375085;32;20216;-77
2021/03/01 07:46:14;;;;;;;39.37;16.83;;;;;;;;;;4375141;32;20498;-78
2021/03/01 07:48:41;;;;;;;39.50;17.73;;;;;;;;;;4375970;32;20155;-77
2021/03/01 07:51:07;;;;;;;40.60;17.70;;;;;;;;;;4384857;32;20227;-76
2021/03/01 07:53:49;;;;;;;44.10;17.40;;;;;;;;;;4388430;32;20180;-77
2021/03/01 07:56:24;;;;;;;42.27;18.13;;;;;;;;;;4384220;32;20178;-77
2021/03/01 07:58:59;;;;;;;44.77;18.97;;;;;;;;;;4375556;32;20543;-78
2021/03/01 08:01:25;;;;;;;45.83;18.20;;;;;;;;;;4389452;32;20146;-79
2021/03/01 08:03:50;;;;;;;44.20;18.43;;;;;;;;;;4375616;32;20463;-79
2021/03/01 08:06:16;;;;;;;41.20;17.30;;;;;;;;;;4375609;32;20155;-77
2021/03/01 08:08:51;;;;;;;40.37;17.37;;;;;;;;;;4375712;32;20159;-79
2021/03/01 08:12:03;;;;;;;;;;;;;;;;;;;;;
2021/03/01 08:14:50;;;;;;;40.27;17.73;;;;;;;;;;4398145;32;20587;-78
2021/03/01 08:17:37;;;;;;;40.57;17.93;;;;;;;;;;4390929;32;20162;-78
2021/03/01 08:20:44;;;;;;;43.10;17.63;;;;;;;;;;4390308;32;20237;-80
2021/03/01 08:23:26;;;;;;;36.27;16.53;;;;;;;;;;4407142;32;20200;-78
2021/03/01 08:26:02;;;;;;;48.37;18.10;;;;;;;;;;4406996;32;20164;-79
2021/03/01 08:28:32;;;;;;;36.10;16.17;;;;;;;;;;4393477;32;20670;-79
2021/03/01 08:31:06;;;;;;;37.63;17.03;;;;;;;;;;4407595;32;20154;-79
2021/03/01 08:33:57;;;;;;;36.10;16.37;;;;;;;;;;4395922;32;20154;-80
2021/03/01 08:36:25;;;;;;;36.60;16.67;;;;;;;;;;4396518;32;20158;-79
2021/03/01 08:39:16;;;;;;;39.53;16.87;;;;;;;;;;4394285;32;20154;-79
2021/03/01 08:41:51;;;;;;;37.50;16.80;;;;;;;;;;4393187;32;20181;-80
2021/03/01 08:44:22;;;;;;;35.43;16.87;;;;;;;;;;4392960;32;20199;-77
2021/03/01 08:46:50;;;;;;;39.23;16.87;;;;;;;;;;4392937;32;20579;-77
2021/03/01 08:49:22;;;;;;;34.80;16.80;;;;;;;;;;4392303;32;20182;-80
2021/03/01 08:51:48;;;;;;;37.93;17.47;;;;;;;;;;4389280;32;20182;-79
2021/03/01 08:54:14;;;;;;;37.47;16.67;;;;;;;;;;4404864;32;20204;-78
2021/03/01 08:56:40;;;;;;;37.57;17.13;;;;;;;;;;4406386;32;20134;-78
2021/03/01 08:59:21;;;;;;;37.30;17.43;;;;;;;;;;4398652;32;20166;-76
2021/03/01 09:01:49;;;;;;;35.90;16.93;;;;;;;;;;4391838;32;20502;-77
2021/03/01 09:04:14;;;;;;;36.37;17.37;;;;;;;;;;4377487;32;20184;-76
2021/03/01 09:06:40;;;;;;;36.83;16.23;;;;;;;;;;4387880;32;20161;-78
2021/03/01 09:09:08;;;;;;;36.57;17.57;;;;;;;;;;4393043;32;20158;-79
2021/03/01 09:11:35;;;;;;;36.30;17.47;;;;;;;;;;4392088;32;20159;-78
2021/03/01 09:14:01;;;;;;;40.90;17.50;;;;;;;;;;4392330;32;20519;-79
2021/03/01 09:16:40;;;;;;;39.43;18.07;;;;;;;;;;4392831;32;20158;-78
2021/03/01 09:19:11;;;;;;;39.13;18.03;;;;;;;;;;4393143;32;20169;-78
2021/03/01 09:21:51;;;;;;;40.83;18.37;;;;;;;;;;4392402;32;20177;-78
2021/03/01 09:24:29;;;;;;;40.70;17.37;;;;;;;;;;4387777;32;20189;-79
2021/03/01 09:27:04;;;;;;;40.93;16.87;;;;;;;;;;4376765;32;20177;-79
2021/03/01 09:29:31;;;;;;;38.23;18.10;;;;;;;;;;4374898;32;20192;-78
2021/03/01 09:31:57;;;;;;;39.17;18.40;;;;;;;;;;4376562;32;20163;-79
2021/03/01 09:34:28;;;;;;;38.07;18.03;;;;;;;;;;4377323;32;20158;-78
2021/03/01 09:36:54;;;;;;;35.33;17.10;;;;;;;;;;4377567;32;20186;-79
2021/03/01 09:39:36;;;;;;;41.00;17.77;;;;;;;;;;4377164;32;20528;-78
2021/03/01 09:42:01;;;;;;;41.70;18.63;;;;;;;;;;4376649;32;20158;-78
2021/03/01 09:44:36;;;;;;;35.73;16.63;;;;;;;;;;4376799;32;20208;-78
2021/03/01 09:47:14;;;;;;;36.67;17.70;;;;;;;;;;4376156;32;20154;-77
2021/03/01 09:49:43;;;;;;;40.13;16.50;;;;;;;;;;4376921;32;20586;-78
2021/03/01 09:52:11;;;;;;;36.60;17.50;;;;;;;;;;4377517;32;20561;-79
2021/03/01 09:54:39;;;;;;;36.10;17.20;;;;;;;;;;4376956;32;20154;-77
2021/03/01 09:57:08;;;;;;;38.37;18.23;;;;;;;;;;4376885;32;20169;-77
2021/03/01 09:59:37;;;;;;;35.73;18.03;;;;;;;;;;4372849;32;20251;-78
2021/03/01 10:02:10;;;;;;;37.93;17.77;;;;;;;;;;4377233;32;20162;-79
2021/03/01 10:04:39;;;;;;;39.50;18.03;;;;;;;;;;4376930;32;20154;-79
2021/03/01 10:07:26;;;;;;;38.83;17.00;;;;;;;;;;4375944;32;20197;-79
2021/03/01 10:09:59;;;;;;;38.97;17.50;;;;;;;;;;4376231;32;20167;-79
2021/03/01 10:12:26;;;;;;;41.03;18.80;;;;;;;;;;4376550;32;20198;-78
2021/03/01 10:15:20;;;;;;;40.27;17.83;;;;;;;;;;4388913;32;20264;-75
2021/03/01 10:18:22;;;;;;;36.03;17.80;;;;;;;;;;4390105;32;20196;-79
2021/03/01 10:21:03;;;;;;;38.17;18.80;;;;;;;;;;4404361;32;20580;-78
2021/03/01 10:23:35;;;;;;;40.87;17.53;;;;;;;;;;4391974;32;20173;-78
2021/03/01 10:26:16;;;;;;;37.37;17.80;;;;;;;;;;4391431;32;20226;-78
2021/03/01 10:28:46;;;;;;;40.63;18.83;;;;;;;;;;4391628;32;20165;-78
2021/03/01 10:31:13;;;;;;;38.87;18.40;;;;;;;;;;4391267;32;20645;-77
2021/03/01 10:33:57;;;;;;;39.20;18.27;;;;;;;;;;4391372;32;20185;-80
2021/03/01 10:36:36;;;;;;;42.33;19.03;;;;;;;;;;4405324;32;20146;-79
2021/03/01 10:39:07;;;;;;;51.57;19.23;;;;;;;;;;4384411;32;20674;-80
2021/03/01 10:41:49;;;;;;;;;;;;;;;;;;;;;
2021/03/01 10:44:15;;;;;;;37.07;17.60;;;;;;;;;;4405330;32;20122;-78
2021/03/01 10:46:48;;;;;;;39.30;16.90;;;;;;;;;;4391050;32;20157;-78
2021/03/01 10:49:21;;;;;;;43.47;18.23;;;;;;;;;;4390445;32;20208;-76
2021/03/01 10:51:50;;;;;;;39.60;17.47;;;;;;;;;;4390870;32;20158;-79
2021/03/01 10:54:46;;;;;;;38.13;17.73;;;;;;;;;;4389470;32;20202;-77
2021/03/01 10:57:14;;;;;;;36.70;17.37;;;;;;;;;;4384190;32;20174;-79
2021/03/01 11:00:03;;;;;;;;;;;;;;;;;;;;;
2021/03/01 11:02:28;;;;;;;37.50;16.37;;;;;;;;;;4404674;32;20154;-78
2021/03/01 11:04:54;;;;;;;32.27;16.27;;;;;;;;;;4390809;32;20201;-80
2021/03/01 11:07:19;;;;;;;34.50;17.50;;;;;;;;;;4390674;32;20162;-77
2021/03/01 11:09:45;;;;;;;33.00;15.83;;;;;;;;;;4405045;32;20172;-78
2021/03/01 11:12:10;;;;;;;36.80;16.53;;;;;;;;;;4404334;32;20158;-78
2021/03/01 11:14:43;;;;;;;32.10;15.67;;;;;;;;;;4387872;32;20245;-79
2021/03/01 11:17:14;;;;;;;37.43;15.60;;;;;;;;;;4361071;32;20162;-79
2021/03/01 11:19:39;;;;;;;35.80;16.07;;;;;;;;;;4374485;32;20488;-79
2021/03/01 11:22:04;;;;;;;29.50;14.83;;;;;;;;;;4361015;32;20159;-78
2021/03/01 11:24:30;;;;;;;29.50;14.93;;;;;;;;;;4382134;32;20629;-79
2021/03/01 11:26:55;;;;;;;32.97;16.37;;;;;;;;;;4375631;32;20154;-79
2021/03/01 11:29:20;;;;;;;29.50;16.03;;;;;;;;;;4389703;32;20157;-79
2021/03/01 11:31:46;;;;;;;36.03;16.60;;;;;;;;;;4375543;32;20485;-78
2021/03/01 11:34:12;;;;;;;35.10;17.47;;;;;;;;;;4375567;32;20158;-78
2021/03/01 11:36:37;;;;;;;32.37;16.53;;;;;;;;;;4389363;32;20165;-78
2021/03/01 11:39:06;;;;;;;31.57;16.03;;;;;;;;;;4376055;32;20323;-78
2021/03/01 11:41:32;;;;;;;34.47;17.63;;;;;;;;;;4388708;32;20280;-78
2021/03/01 11:43:57;;;;;;;32.37;16.23;;;;;;;;;;4374181;32;20206;-78
2021/03/01 11:46:25;;;;;;;28.90;15.33;;;;;;;;;;4389518;32;20133;-79
2021/03/01 11:48:59;;;;;;;30.40;15.33;;;;;;;;;;4375472;32;20228;-79
2021/03/01 11:51:25;;;;;;;33.07;16.77;;;;;;;;;;4389487;32;20134;-79
2021/03/01 11:53:51;;;;;;;27.87;14.43;;;;;;;;;;4389128;32;20196;-78
2021/03/01 11:56:27;;;;;;;28.12;14.15;;;;;;;;;;4390484;32;20141;-79
2021/03/01 11:58:53;;;;;;;31.45;14.87;;;;;;;;;;4378176;32;20181;-78
2021/03/01 12:01:18;;;;;;;28.65;14.38;;;;;;;;;;4377736;32;20229;-79
2021/03/01 12:03:44;;;;;;;28.73;14.65;;;;;;;;;;4391723;32;20650;-79
2021/03/01 12:06:09;;;;;;;27.48;13.98;;;;;;;;;;4378450;32;20196;-79
2021/03/01 12:08:46;;;;;;;26.35;14.10;;;;;;;;;;4392416;32;20134;-81
2021/03/01 12:11:11;;;;;;;30.92;13.77;;;;;;;;;;4378270;32;20185;-81
2021/03/01 12:13:37;;;;;;;26.27;13.43;;;;;;;;;;4393900;32;20193;-80
2021/03/01 12:16:11;;;;;;;25.70;13.40;;;;;;;;;;4405396;32;20245;-79
2021/03/01 12:18:36;;;;;;;25.33;13.23;;;;;;;;;;4393319;32;20173;-79
2021/03/01 12:21:20;;;;;;;;;;;;;;;;;;;;;
2021/03/01 12:23:46;;;;;;;24.85;12.27;;;;;;;;;;4393113;32;20142;-78
2021/03/01 12:26:11;;;;;;;25.67;13.03;;;;;;;;;;4378151;32;20146;-79
2021/03/01 12:28:36;;;;;;;23.42;12.02;;;;;;;;;;4378373;32;20578;-79
2021/03/01 12:31:08;;;;;;;23.75;13.25;;;;;;;;;;4377904;32;20477;-79
2021/03/01 12:33:33;;;;;;;19.52;10.38;;;;;;;;;;4378042;32;20295;-79
2021/03/01 12:35:59;;;;;;;20.60;12.07;;;;;;;;;;4378268;32;20150;-79
2021/03/01 12:38:24;;;;;;;20.25;11.48;;;;;;;;;;4377874;32;20207;-79
2021/03/01 12:40:49;;;;;;;21.50;12.98;;;;;;;;;;4378208;32;20510;-79
2021/03/01 12:43:18;;;;;;;25.12;13.88;;;;;;;;;;4378366;32;20645;-78
2021/03/01 12:45:43;;;;;;;28.08;14.15;;;;;;;;;;4377839;32;20181;-79
2021/03/01 12:48:08;;;;;;;23.15;12.25;;;;;;;;;;4377723;32;20154;-79
2021/03/01 12:50:34;;;;;;;24.75;13.15;;;;;;;;;;4378113;32;20630;-78
2021/03/01 12:53:08;;;;;;;26.35;15.13;;;;;;;;;;4377915;32;20185;-78
2021/03/01 12:55:34;;;;;;;28.73;15.93;;;;;;;;;;4378198;32;20157;-77
2021/03/01 12:58:00;;;;;;;24.63;14.05;;;;;;;;;;4377791;32;20552;-78
2021/03/01 13:00:28;;;;;;;27.02;14.85;;;;;;;;;;4377980;32;20451;-79
2021/03/01 13:02:57;;;;;;;25.65;13.27;;;;;;;;;;4377909;32;20190;-78
2021/03/01 13:05:25;;;;;;;25.53;13.63;;;;;;;;;;4370665;32;20240;-79
2021/03/01 13:07:50;;;;;;;22.35;12.43;;;;;;;;;;4370298;32;20166;-80
2021/03/01 13:10:15;;;;;;;25.67;12.43;;;;;;;;;;4377104;32;20499;-79
2021/03/01 13:12:51;;;;;;;20.55;11.88;;;;;;;;;;4377366;32;20264;-79
2021/03/01 13:15:17;;;;;;;20.48;11.12;;;;;;;;;;4379660;32;20173;-78
2021/03/01 13:17:44;;;;;;;22.80;11.88;;;;;;;;;;4392585;32;20679;-80
2021/03/01 13:20:17;;;;;;;20.95;11.88;;;;;;;;;;4392506;32;20511;-79
2021/03/01 13:22:43;;;;;;;21.17;11.63;;;;;;;;;;4392408;32;20150;-78
2021/03/01 13:25:08;;;;;;;18.00;11.82;;;;;;;;;;4392190;32;20162;-78
2021/03/01 13:27:38;;;;;;;18.62;11.43;;;;;;;;;;4391895;32;20315;-79
2021/03/01 13:30:07;;;;;;;20.00;11.60;;;;;;;;;;4392359;32;20158;-79
2021/03/01 13:32:48;;;;;;;16.60;11.48;;;;;;;;;;4391214;32;20465;-79
2021/03/01 13:35:13;;;;;;;21.23;13.07;;;;;;;;;;4392156;32;20297;-79
2021/03/01 13:37:39;;;;;;;15.68;11.12;;;;;;;;;;4392003;32;20449;-79
2021/03/01 13:40:05;;;;;;;17.73;11.40;;;;;;;;;;4392478;32;20560;-80
2021/03/01 13:42:31;;;;;;;21.95;11.80;;;;;;;;;;4392023;32;20150;-79
2021/03/01 13:44:56;;;;;;;15.30;10.50;;;;;;;;;;4390800;32;20204;-79
2021/03/01 13:47:30;;;;;;;17.62;11.70;;;;;;;;;;4404493;32;20166;-80
2021/03/01 13:50:15;;;;;;;15.70;10.82;;;;;;;;;;4392182;32;20154;-80
2021/03/01 13:53:00;;;;;;;16.45;12.00;;;;;;;;;;4392251;32;20560;-80
2021/03/01 13:55:28;;;;;;;14.85;10.45;;;;;;;;;;4391654;32;20162;-79
2021/03/01 13:57:54;;;;;;;17.02;11.00;;;;;;;;;;4391835;32;20181;-80
2021/03/01 14:00:19;;;;;;;17.40;11.57;;;;;;;;;;4391742;32;20202;-80
2021/03/01 14:03:03;;;;;;;15.10;11.07;;;;;;;;;;4388079;32;20668;-80
2021/03/01 14:05:29;;;;;;;16.95;11.23;;;;;;;;;;4388352;32;20166;-78
2021/03/01 14:08:05;;;;;;;18.70;11.70;;;;;;;;;;4391322;32;20172;-79
2021/03/01 14:10:36;;;;;;;15.90;9.77;;;;;;;;;;4405906;32;20142;-80
2021/03/01 14:13:12;;;;;;;15.63;10.05;;;;;;;;;;4391611;32;20158;-79
2021/03/01 14:15:46;;;;;;;16.25;9.88;;;;;;;;;;4393411;32;20161;-80
2021/03/01 14:18:14;;;;;;;15.68;10.30;;;;;;;;;;4403239;32;20517;-79
2021/03/01 14:21:22;;;;;;;15.20;10.10;;;;;;;;;;4398834;32;20166;-80
2021/03/01 14:23:35;;;;;;;15.93;9.57;;;;;;;;;;4399172;32;20170;-80
2021/03/01 14:26:03;;;;;;;16.30;9.80;;;;;;;;;;4405278;32;20134;-80
2021/03/01 14:28:29;;;;;;;17.15;10.55;;;;;;;;;;4403894;32;20189;-80
2021/03/01 14:31:08;;;;;;;14.90;10.13;;;;;;;;;;4403457;32;20158;-80
2021/03/01 14:33:42;;;;;;;18.67;11.25;;;;;;;;;;4403627;32;20154;-80
2021/03/01 14:36:08;;;;;;;21.37;11.55;;;;;;;;;;4396034;32;20226;-78